sensor_id;sensor_type;location;lat;lon;timestamp;P1;durP1;ratioP1;P2;durP2;ratioP2
51987;SDS011;38003;52.012;4.346;2023-06-22T00:01:35;14.95;;;12.77;;
51987;SDS011;38003;52.012;4.346;2023-06-22T00:04:03;16.17;;;13.65;;
51987;SDS011;38003;52.012;4.346;2023-06-22T00:06:32;15.77;;;13.75;;
51987;SDS011;38003;52.012;4.346;2023-06-22T00:09:00;16.70;;;13.88;;
51987;SDS011;38003;52.012;4.346;2023-06-22T00:11:29;15.55;;;14.05;;
51987;SDS011;38003;52.012;4.346;2023-06-22T00:13:59;17.13;;;14.43;;
51987;SDS011;38003;52.012;4.346;2023-06-22T00:16:28;17.70;;;15.02;;
51987;SDS011;38003;52.012;4.346;2023-06-22T00:18:57;18.17;;;15.35;;
51987;SDS011;38003;52.012;4.346;2023-06-22T00:21:26;19.33;;;16.08;;
51987;SDS011;38003;52.012;4.346;2023-06-22T00:23:55;18.67;;;15.52;;
51987;SDS011;38003;52.012;4.346;2023-06-22T00:26:23;18.13;;;15.88;;
51987;SDS011;38003;52.012;4.346;2023-06-22T00:28:51;17.95;;;14.95;;
51987;SDS011;38003;52.012;4.346;2023-06-22T00:31:20;19.52;;;15.85;;
51987;SDS011;38003;52.012;4.346;2023-06-22T00:33:48;19.17;;;16.15;;
51987;SDS011;38003;52.012;4.346;2023-06-22T00:36:18;21.88;;;16.20;;
51987;SDS011;38003;52.012;4.346;2023-06-22T00:38:46;18.20;;;16.30;;
51987;SDS011;38003;52.012;4.346;2023-06-22T00:41:16;17.02;;;15.23;;
51987;SDS011;38003;52.012;4.346;2023-06-22T00:43:45;17.65;;;15.63;;
51987;SDS011;38003;52.012;4.346;2023-06-22T00:46:13;20.83;;;16.77;;
51987;SDS011;38003;52.012;4.346;2023-06-22T00:48:41;19.60;;;16.85;;
51987;SDS011;38003;52.012;4.346;2023-06-22T00:51:10;19.05;;;15.77;;
51987;SDS011;38003;52.012;4.346;2023-06-22T00:53:40;19.40;;;15.95;;
51987;SDS011;38003;52.012;4.346;2023-06-22T00:56:09;16.98;;;15.20;;
51987;SDS011;38003;52.012;4.346;2023-06-22T00:58:38;20.15;;;16.55;;
51987;SDS011;38003;52.012;4.346;2023-06-22T01:01:07;20.73;;;17.23;;
51987;SDS011;38003;52.012;4.346;2023-06-22T01:03:36;19.60;;;16.40;;
51987;SDS011;38003;52.012;4.346;2023-06-22T01:06:06;19.80;;;15.77;;
51987;SDS011;38003;52.012;4.346;2023-06-22T01:08:37;21.88;;;16.48;;
51987;SDS011;38003;52.012;4.346;2023-06-22T01:11:12;19.40;;;16.35;;
51987;SDS011;38003;52.012;4.346;2023-06-22T01:13:45;22.60;;;16.42;;
51987;SDS011;38003;52.012;4.346;2023-06-22T01:16:17;20.90;;;17.40;;
51987;SDS011;38003;52.012;4.346;2023-06-22T01:18:46;21.98;;;17.67;;
51987;SDS011;38003;52.012;4.346;2023-06-22T01:21:16;19.60;;;16.48;;
51987;SDS011;38003;52.012;4.346;2023-06-22T01:23:51;22.25;;;17.48;;
51987;SDS011;38003;52.012;4.346;2023-06-22T01:26:25;20.70;;;17.63;;
51987;SDS011;38003;52.012;4.346;2023-06-22T01:28:57;19.90;;;17.80;;
51987;SDS011;38003;52.012;4.346;2023-06-22T01:31:27;24.35;;;17.33;;
51987;SDS011;38003;52.012;4.346;2023-06-22T01:33:57;19.55;;;17.20;;
51987;SDS011;38003;52.012;4.346;2023-06-22T01:36:26;21.38;;;17.80;;
51987;SDS011;38003;52.012;4.346;2023-06-22T01:38:55;20.52;;;17.52;;
51987;SDS011;38003;52.012;4.346;2023-06-22T01:41:25;20.13;;;17.42;;
51987;SDS011;38003;52.012;4.346;2023-06-22T01:43:54;19.88;;;16.10;;
51987;SDS011;38003;52.012;4.346;2023-06-22T01:46:24;19.65;;;16.83;;
51987;SDS011;38003;52.012;4.346;2023-06-22T01:48:52;17.90;;;16.02;;
51987;SDS011;38003;52.012;4.346;2023-06-22T01:51:21;19.90;;;16.92;;
51987;SDS011;38003;52.012;4.346;2023-06-22T01:53:49;21.02;;;17.58;;
51987;SDS011;38003;52.012;4.346;2023-06-22T01:56:17;19.23;;;16.77;;
51987;SDS011;38003;52.012;4.346;2023-06-22T01:58:49;21.17;;;17.08;;
51987;SDS011;38003;52.012;4.346;2023-06-22T02:01:19;20.52;;;17.30;;
51987;SDS011;38003;52.012;4.346;2023-06-22T02:03:52;23.80;;;18.00;;
51987;SDS011;38003;52.012;4.346;2023-06-22T02:06:24;21.08;;;17.65;;
51987;SDS011;38003;52.012;4.346;2023-06-22T02:08:56;20.23;;;18.02;;
51987;SDS011;38003;52.012;4.346;2023-06-22T02:11:25;22.33;;;18.50;;
51987;SDS011;38003;52.012;4.346;2023-06-22T02:13:54;21.98;;;17.40;;
51987;SDS011;38003;52.012;4.346;2023-06-22T02:16:23;22.08;;;18.50;;
51987;SDS011;38003;52.012;4.346;2023-06-22T02:18:57;23.27;;;17.83;;
51987;SDS011;38003;52.012;4.346;2023-06-22T02:21:29;21.20;;;18.17;;
51987;SDS011;38003;52.012;4.346;2023-06-22T02:23:58;21.88;;;18.15;;
51987;SDS011;38003;52.012;4.346;2023-06-22T02:26:26;22.42;;;18.17;;
51987;SDS011;38003;52.012;4.346;2023-06-22T02:28:55;24.67;;;19.90;;
51987;SDS011;38003;52.012;4.346;2023-06-22T02:31:23;24.23;;;19.90;;
51987;SDS011;38003;52.012;4.346;2023-06-22T02:33:59;24.45;;;20.52;;
51987;SDS011;38003;52.012;4.346;2023-06-22T02:36:27;25.58;;;20.70;;
51987;SDS011;38003;52.012;4.346;2023-06-22T02:38:57;24.55;;;20.02;;
51987;SDS011;38003;52.012;4.346;2023-06-22T02:41:27;27.15;;;21.42;;
51987;SDS011;38003;52.012;4.346;2023-06-22T02:43:55;27.33;;;21.17;;
51987;SDS011;38003;52.012;4.346;2023-06-22T02:46:23;23.45;;;20.50;;
51987;SDS011;38003;52.012;4.346;2023-06-22T02:48:52;26.13;;;21.35;;
51987;SDS011;38003;52.012;4.346;2023-06-22T02:51:21;26.50;;;22.38;;
51987;SDS011;38003;52.012;4.346;2023-06-22T02:53:49;24.67;;;20.92;;
51987;SDS011;38003;52.012;4.346;2023-06-22T02:56:23;24.25;;;20.38;;
51987;SDS011;38003;52.012;4.346;2023-06-22T02:58:52;24.52;;;21.33;;
51987;SDS011;38003;52.012;4.346;2023-06-22T03:01:20;23.73;;;20.95;;
51987;SDS011;38003;52.012;4.346;2023-06-22T03:03:50;26.00;;;21.63;;
51987;SDS011;38003;52.012;4.346;2023-06-22T03:06:19;25.92;;;20.95;;
51987;SDS011;38003;52.012;4.346;2023-06-22T03:08:51;25.92;;;20.58;;
51987;SDS011;38003;52.012;4.346;2023-06-22T03:11:19;25.45;;;21.02;;
51987;SDS011;38003;52.012;4.346;2023-06-22T03:13:47;27.83;;;21.67;;
51987;SDS011;38003;52.012;4.346;2023-06-22T03:16:18;25.70;;;20.40;;
51987;SDS011;38003;52.012;4.346;2023-06-22T03:18:46;29.13;;;22.30;;
51987;SDS011;38003;52.012;4.346;2023-06-22T03:21:14;26.27;;;21.05;;
51987;SDS011;38003;52.012;4.346;2023-06-22T03:23:43;24.90;;;21.65;;
51987;SDS011;38003;52.012;4.346;2023-06-22T03:26:12;26.77;;;22.60;;
51987;SDS011;38003;52.012;4.346;2023-06-22T03:28:41;27.88;;;23.05;;
51987;SDS011;38003;52.012;4.346;2023-06-22T03:31:09;27.00;;;22.63;;
51987;SDS011;38003;52.012;4.346;2023-06-22T03:33:37;28.23;;;23.52;;
51987;SDS011;38003;52.012;4.346;2023-06-22T03:36:06;35.13;;;23.92;;
51987;SDS011;38003;52.012;4.346;2023-06-22T03:38:34;27.88;;;23.23;;
51987;SDS011;38003;52.012;4.346;2023-06-22T03:41:02;27.30;;;23.70;;
51987;SDS011;38003;52.012;4.346;2023-06-22T03:43:32;31.40;;;24.55;;
51987;SDS011;38003;52.012;4.346;2023-06-22T03:46:00;31.40;;;23.58;;
51987;SDS011;38003;52.012;4.346;2023-06-22T03:48:28;29.60;;;24.38;;
51987;SDS011;38003;52.012;4.346;2023-06-22T03:50:56;31.20;;;24.87;;
51987;SDS011;38003;52.012;4.346;2023-06-22T03:53:25;28.93;;;24.43;;
51987;SDS011;38003;52.012;4.346;2023-06-22T03:55:53;29.27;;;24.15;;
51987;SDS011;38003;52.012;4.346;2023-06-22T03:58:21;28.40;;;23.75;;
51987;SDS011;38003;52.012;4.346;2023-06-22T04:00:51;31.40;;;25.30;;
51987;SDS011;38003;52.012;4.346;2023-06-22T04:03:20;31.15;;;24.58;;
51987;SDS011;38003;52.012;4.346;2023-06-22T04:05:48;30.08;;;25.00;;
51987;SDS011;38003;52.012;4.346;2023-06-22T04:08:17;31.17;;;25.03;;
51987;SDS011;38003;52.012;4.346;2023-06-22T04:10:46;31.60;;;25.60;;
51987;SDS011;38003;52.012;4.346;2023-06-22T04:13:14;31.92;;;25.60;;
51987;SDS011;38003;52.012;4.346;2023-06-22T04:15:42;31.70;;;26.23;;
51987;SDS011;38003;52.012;4.346;2023-06-22T04:18:11;30.85;;;25.40;;
51987;SDS011;38003;52.012;4.346;2023-06-22T04:20:40;29.15;;;23.65;;
51987;SDS011;38003;52.012;4.346;2023-06-22T04:23:13;29.00;;;25.30;;
51987;SDS011;38003;52.012;4.346;2023-06-22T04:25:41;32.93;;;25.77;;
51987;SDS011;38003;52.012;4.346;2023-06-22T04:28:09;27.23;;;23.77;;
51987;SDS011;38003;52.012;4.346;2023-06-22T04:30:39;27.57;;;23.13;;
51987;SDS011;38003;52.012;4.346;2023-06-22T04:33:14;29.73;;;24.20;;
51987;SDS011;38003;52.012;4.346;2023-06-22T04:35:44;32.60;;;25.38;;
51987;SDS011;38003;52.012;4.346;2023-06-22T04:38:12;30.20;;;24.27;;
51987;SDS011;38003;52.012;4.346;2023-06-22T04:40:41;33.78;;;24.50;;
51987;SDS011;38003;52.012;4.346;2023-06-22T04:43:09;30.43;;;25.10;;
51987;SDS011;38003;52.012;4.346;2023-06-22T04:45:37;29.57;;;24.23;;
51987;SDS011;38003;52.012;4.346;2023-06-22T04:48:05;30.55;;;24.27;;
51987;SDS011;38003;52.012;4.346;2023-06-22T04:50:37;29.70;;;24.65;;
51987;SDS011;38003;52.012;4.346;2023-06-22T04:53:06;31.20;;;25.47;;
51987;SDS011;38003;52.012;4.346;2023-06-22T04:55:35;27.60;;;22.55;;
51987;SDS011;38003;52.012;4.346;2023-06-22T04:58:08;29.85;;;24.00;;
51987;SDS011;38003;52.012;4.346;2023-06-22T05:00:39;28.58;;;23.88;;
51987;SDS011;38003;52.012;4.346;2023-06-22T05:03:07;28.98;;;22.92;;
51987;SDS011;38003;52.012;4.346;2023-06-22T05:05:47;28.98;;;23.48;;
51987;SDS011;38003;52.012;4.346;2023-06-22T05:08:15;29.30;;;23.05;;
51987;SDS011;38003;52.012;4.346;2023-06-22T05:10:44;29.20;;;22.55;;
51987;SDS011;38003;52.012;4.346;2023-06-22T05:13:29;26.45;;;21.60;;
51987;SDS011;38003;52.012;4.346;2023-06-22T05:15:58;25.65;;;20.85;;
51987;SDS011;38003;52.012;4.346;2023-06-22T05:18:29;27.55;;;21.42;;
51987;SDS011;38003;52.012;4.346;2023-06-22T05:20:59;27.08;;;21.95;;
51987;SDS011;38003;52.012;4.346;2023-06-22T05:23:27;28.33;;;20.95;;
51987;SDS011;38003;52.012;4.346;2023-06-22T05:25:55;26.13;;;20.60;;
51987;SDS011;38003;52.012;4.346;2023-06-22T05:28:24;25.55;;;20.58;;
51987;SDS011;38003;52.012;4.346;2023-06-22T05:30:53;23.92;;;20.25;;
51987;SDS011;38003;52.012;4.346;2023-06-22T05:33:21;24.52;;;20.02;;
51987;SDS011;38003;52.012;4.346;2023-06-22T05:35:49;22.25;;;18.88;;
51987;SDS011;38003;52.012;4.346;2023-06-22T05:38:19;22.58;;;18.00;;
51987;SDS011;38003;52.012;4.346;2023-06-22T05:40:47;20.80;;;17.42;;
51987;SDS011;38003;52.012;4.346;2023-06-22T05:43:15;23.45;;;19.42;;
51987;SDS011;38003;52.012;4.346;2023-06-22T05:45:43;21.67;;;18.05;;
51987;SDS011;38003;52.012;4.346;2023-06-22T05:48:12;22.52;;;18.10;;
51987;SDS011;38003;52.012;4.346;2023-06-22T05:50:40;22.55;;;17.38;;
51987;SDS011;38003;52.012;4.346;2023-06-22T05:53:08;19.90;;;16.58;;
51987;SDS011;38003;52.012;4.346;2023-06-22T05:55:38;19.45;;;15.88;;
51987;SDS011;38003;52.012;4.346;2023-06-22T05:58:06;19.50;;;16.17;;
51987;SDS011;38003;52.012;4.346;2023-06-22T06:00:34;22.63;;;16.33;;
51987;SDS011;38003;52.012;4.346;2023-06-22T06:03:03;20.48;;;16.60;;
51987;SDS011;38003;52.012;4.346;2023-06-22T06:05:31;21.30;;;16.35;;
51987;SDS011;38003;52.012;4.346;2023-06-22T06:08:00;20.08;;;15.18;;
51987;SDS011;38003;52.012;4.346;2023-06-22T06:10:28;17.05;;;14.80;;
51987;SDS011;38003;52.012;4.346;2023-06-22T06:12:59;16.80;;;14.35;;
51987;SDS011;38003;52.012;4.346;2023-06-22T06:15:28;18.77;;;14.15;;
51987;SDS011;38003;52.012;4.346;2023-06-22T06:17:56;17.13;;;14.75;;
51987;SDS011;38003;52.012;4.346;2023-06-22T06:20:25;18.20;;;14.02;;
51987;SDS011;38003;52.012;4.346;2023-06-22T06:22:55;18.50;;;13.90;;
51987;SDS011;38003;52.012;4.346;2023-06-22T06:25:24;17.73;;;14.98;;
51987;SDS011;38003;52.012;4.346;2023-06-22T06:27:53;17.75;;;15.63;;
51987;SDS011;38003;52.012;4.346;2023-06-22T06:30:23;22.17;;;15.48;;
51987;SDS011;38003;52.012;4.346;2023-06-22T06:32:51;17.50;;;14.80;;
51987;SDS011;38003;52.012;4.346;2023-06-22T06:35:19;17.70;;;15.50;;
51987;SDS011;38003;52.012;4.346;2023-06-22T06:37:48;17.80;;;14.70;;
51987;SDS011;38003;52.012;4.346;2023-06-22T06:40:17;19.98;;;14.82;;
51987;SDS011;38003;52.012;4.346;2023-06-22T06:42:47;18.30;;;14.70;;
51987;SDS011;38003;52.012;4.346;2023-06-22T06:45:16;17.85;;;15.52;;
51987;SDS011;38003;52.012;4.346;2023-06-22T06:47:46;24.08;;;15.02;;
51987;SDS011;38003;52.012;4.346;2023-06-22T06:50:14;18.98;;;14.93;;
51987;SDS011;38003;52.012;4.346;2023-06-22T06:52:43;16.35;;;13.80;;
51987;SDS011;38003;52.012;4.346;2023-06-22T06:55:11;17.17;;;14.80;;
51987;SDS011;38003;52.012;4.346;2023-06-22T06:57:40;18.83;;;14.73;;
51987;SDS011;38003;52.012;4.346;2023-06-22T07:00:09;16.98;;;13.57;;
51987;SDS011;38003;52.012;4.346;2023-06-22T07:02:41;15.20;;;13.18;;
51987;SDS011;38003;52.012;4.346;2023-06-22T07:05:11;15.80;;;12.68;;
51987;SDS011;38003;52.012;4.346;2023-06-22T07:07:39;14.43;;;12.32;;
51987;SDS011;38003;52.012;4.346;2023-06-22T07:10:09;17.65;;;13.13;;
51987;SDS011;38003;52.012;4.346;2023-06-22T07:12:38;18.58;;;13.27;;
51987;SDS011;38003;52.012;4.346;2023-06-22T07:15:06;15.45;;;13.70;;
51987;SDS011;38003;52.012;4.346;2023-06-22T07:17:35;15.98;;;13.75;;
51987;SDS011;38003;52.012;4.346;2023-06-22T07:20:04;13.85;;;12.35;;
51987;SDS011;38003;52.012;4.346;2023-06-22T07:22:37;14.27;;;12.30;;
51987;SDS011;38003;52.012;4.346;2023-06-22T07:25:06;15.00;;;12.05;;
51987;SDS011;38003;52.012;4.346;2023-06-22T07:27:36;12.68;;;11.30;;
51987;SDS011;38003;52.012;4.346;2023-06-22T07:30:06;14.48;;;11.52;;
51987;SDS011;38003;52.012;4.346;2023-06-22T07:32:34;14.73;;;12.00;;
51987;SDS011;38003;52.012;4.346;2023-06-22T07:35:03;14.68;;;11.48;;
51987;SDS011;38003;52.012;4.346;2023-06-22T07:37:32;13.98;;;11.13;;
51987;SDS011;38003;52.012;4.346;2023-06-22T07:40:03;12.18;;;10.63;;
51987;SDS011;38003;52.012;4.346;2023-06-22T07:42:33;11.80;;;10.52;;
51987;SDS011;38003;52.012;4.346;2023-06-22T07:45:02;11.27;;;10.10;;
51987;SDS011;38003;52.012;4.346;2023-06-22T07:47:30;10.07;;;9.07;;
51987;SDS011;38003;52.012;4.346;2023-06-22T07:50:02;10.95;;;9.00;;
51987;SDS011;38003;52.012;4.346;2023-06-22T07:52:30;9.73;;;8.18;;
51987;SDS011;38003;52.012;4.346;2023-06-22T07:54:59;9.35;;;8.38;;
51987;SDS011;38003;52.012;4.346;2023-06-22T07:57:30;9.90;;;8.68;;
51987;SDS011;38003;52.012;4.346;2023-06-22T08:00:00;10.23;;;7.00;;
51987;SDS011;38003;52.012;4.346;2023-06-22T08:02:30;8.32;;;7.32;;
51987;SDS011;38003;52.012;4.346;2023-06-22T08:04:58;9.23;;;6.80;;
51987;SDS011;38003;52.012;4.346;2023-06-22T08:07:45;8.65;;;7.75;;
51987;SDS011;38003;52.012;4.346;2023-06-22T08:10:14;9.23;;;7.30;;
51987;SDS011;38003;52.012;4.346;2023-06-22T08:12:44;7.03;;;6.32;;
51987;SDS011;38003;52.012;4.346;2023-06-22T08:15:12;6.93;;;6.22;;
51987;SDS011;38003;52.012;4.346;2023-06-22T08:17:40;7.32;;;6.63;;
51987;SDS011;38003;52.012;4.346;2023-06-22T08:20:09;7.47;;;6.03;;
51987;SDS011;38003;52.012;4.346;2023-06-22T08:22:38;6.43;;;4.82;;
51987;SDS011;38003;52.012;4.346;2023-06-22T08:25:07;6.38;;;5.78;;
51987;SDS011;38003;52.012;4.346;2023-06-22T08:27:35;7.20;;;5.30;;
51987;SDS011;38003;52.012;4.346;2023-06-22T08:30:06;6.38;;;5.68;;
51987;SDS011;38003;52.012;4.346;2023-06-22T08:32:34;7.05;;;4.85;;
51987;SDS011;38003;52.012;4.346;2023-06-22T08:35:03;5.35;;;4.80;;
51987;SDS011;38003;52.012;4.346;2023-06-22T08:37:32;6.90;;;4.45;;
51987;SDS011;38003;52.012;4.346;2023-06-22T08:40:02;4.72;;;4.22;;
51987;SDS011;38003;52.012;4.346;2023-06-22T08:42:31;6.40;;;4.70;;
51987;SDS011;38003;52.012;4.346;2023-06-22T08:44:59;7.65;;;4.80;;
51987;SDS011;38003;52.012;4.346;2023-06-22T08:47:29;6.20;;;4.63;;
51987;SDS011;38003;52.012;4.346;2023-06-22T08:49:57;7.53;;;5.43;;
51987;SDS011;38003;52.012;4.346;2023-06-22T08:52:28;7.13;;;5.30;;
51987;SDS011;38003;52.012;4.346;2023-06-22T08:54:56;7.07;;;5.00;;
51987;SDS011;38003;52.012;4.346;2023-06-22T08:57:25;6.47;;;4.50;;
51987;SDS011;38003;52.012;4.346;2023-06-22T08:59:53;5.97;;;5.20;;
51987;SDS011;38003;52.012;4.346;2023-06-22T09:02:25;5.78;;;4.90;;
51987;SDS011;38003;52.012;4.346;2023-06-22T09:05:02;6.03;;;4.97;;
51987;SDS011;38003;52.012;4.346;2023-06-22T09:07:31;5.72;;;4.43;;
51987;SDS011;38003;52.012;4.346;2023-06-22T09:10:00;5.28;;;4.30;;
51987;SDS011;38003;52.012;4.346;2023-06-22T09:12:30;4.65;;;3.63;;
51987;SDS011;38003;52.012;4.346;2023-06-22T09:14:59;4.97;;;3.75;;
51987;SDS011;38003;52.012;4.346;2023-06-22T09:17:28;5.43;;;4.03;;
51987;SDS011;38003;52.012;4.346;2023-06-22T09:19:57;4.43;;;3.40;;
51987;SDS011;38003;52.012;4.346;2023-06-22T09:22:27;4.10;;;3.30;;
51987;SDS011;38003;52.012;4.346;2023-06-22T09:24:55;3.47;;;2.92;;
51987;SDS011;38003;52.012;4.346;2023-06-22T09:27:24;4.00;;;2.63;;
51987;SDS011;38003;52.012;4.346;2023-06-22T09:29:52;3.38;;;3.08;;
51987;SDS011;38003;52.012;4.346;2023-06-22T09:32:20;5.30;;;3.70;;
51987;SDS011;38003;52.012;4.346;2023-06-22T09:34:48;6.43;;;3.72;;
51987;SDS011;38003;52.012;4.346;2023-06-22T09:37:16;5.43;;;4.28;;
51987;SDS011;38003;52.012;4.346;2023-06-22T09:39:46;6.75;;;5.05;;
51987;SDS011;38003;52.012;4.346;2023-06-22T09:42:14;5.35;;;4.25;;
51987;SDS011;38003;52.012;4.346;2023-06-22T09:44:42;6.65;;;4.50;;
51987;SDS011;38003;52.012;4.346;2023-06-22T09:47:11;6.85;;;5.70;;
51987;SDS011;38003;52.012;4.346;2023-06-22T09:49:39;7.07;;;5.93;;
51987;SDS011;38003;52.012;4.346;2023-06-22T09:52:14;7.28;;;5.28;;
51987;SDS011;38003;52.012;4.346;2023-06-22T09:54:42;8.13;;;6.07;;
51987;SDS011;38003;52.012;4.346;2023-06-22T09:57:12;10.13;;;7.63;;
51987;SDS011;38003;52.012;4.346;2023-06-22T09:59:40;8.00;;;7.18;;
51987;SDS011;38003;52.012;4.346;2023-06-22T10:02:09;7.90;;;7.10;;
51987;SDS011;38003;52.012;4.346;2023-06-22T10:04:37;9.32;;;7.32;;
51987;SDS011;38003;52.012;4.346;2023-06-22T10:07:06;10.02;;;7.10;;
51987;SDS011;38003;52.012;4.346;2023-06-22T10:09:35;8.45;;;6.78;;
51987;SDS011;38003;52.012;4.346;2023-06-22T10:12:03;7.20;;;6.32;;
51987;SDS011;38003;52.012;4.346;2023-06-22T10:14:33;6.38;;;5.45;;
51987;SDS011;38003;52.012;4.346;2023-06-22T10:17:01;10.15;;;6.25;;
51987;SDS011;38003;52.012;4.346;2023-06-22T10:19:30;8.20;;;6.50;;
51987;SDS011;38003;52.012;4.346;2023-06-22T10:21:58;10.95;;;8.18;;
51987;SDS011;38003;52.012;4.346;2023-06-22T10:24:26;7.85;;;6.95;;
51987;SDS011;38003;52.012;4.346;2023-06-22T10:26:55;7.15;;;6.45;;
51987;SDS011;38003;52.012;4.346;2023-06-22T10:29:23;6.53;;;5.55;;
51987;SDS011;38003;52.012;4.346;2023-06-22T10:31:52;6.85;;;4.90;;
51987;SDS011;38003;52.012;4.346;2023-06-22T10:34:21;5.28;;;4.78;;
51987;SDS011;38003;52.012;4.346;2023-06-22T10:36:49;9.30;;;6.68;;
51987;SDS011;38003;52.012;4.346;2023-06-22T10:39:17;8.00;;;5.75;;
51987;SDS011;38003;52.012;4.346;2023-06-22T10:41:45;8.35;;;7.45;;
51987;SDS011;38003;52.012;4.346;2023-06-22T10:44:13;8.68;;;7.15;;
51987;SDS011;38003;52.012;4.346;2023-06-22T10:46:43;11.05;;;8.30;;
51987;SDS011;38003;52.012;4.346;2023-06-22T10:49:13;10.93;;;8.73;;
51987;SDS011;38003;52.012;4.346;2023-06-22T10:51:41;8.95;;;8.05;;
51987;SDS011;38003;52.012;4.346;2023-06-22T10:54:09;9.40;;;7.63;;
51987;SDS011;38003;52.012;4.346;2023-06-22T10:56:39;8.65;;;7.68;;
51987;SDS011;38003;52.012;4.346;2023-06-22T10:59:08;13.38;;;7.57;;
51987;SDS011;38003;52.012;4.346;2023-06-22T11:01:36;8.57;;;7.70;;
51987;SDS011;38003;52.012;4.346;2023-06-22T11:04:04;9.25;;;7.00;;
51987;SDS011;38003;52.012;4.346;2023-06-22T11:06:34;9.25;;;8.07;;
51987;SDS011;38003;52.012;4.346;2023-06-22T11:09:02;9.00;;;8.13;;
51987;SDS011;38003;52.012;4.346;2023-06-22T11:11:49;11.40;;;7.70;;
51987;SDS011;38003;52.012;4.346;2023-06-22T11:14:19;10.68;;;8.25;;
51987;SDS011;38003;52.012;4.346;2023-06-22T11:16:48;9.10;;;7.95;;
51987;SDS011;38003;52.012;4.346;2023-06-22T11:19:16;10.25;;;9.00;;
51987;SDS011;38003;52.012;4.346;2023-06-22T11:21:46;9.85;;;8.85;;
51987;SDS011;38003;52.012;4.346;2023-06-22T11:24:15;10.13;;;9.13;;
51987;SDS011;38003;52.012;4.346;2023-06-22T11:26:43;10.63;;;8.82;;
51987;SDS011;38003;52.012;4.346;2023-06-22T11:29:11;9.27;;;8.27;;
51987;SDS011;38003;52.012;4.346;2023-06-22T11:31:59;9.13;;;8.20;;
51987;SDS011;38003;52.012;4.346;2023-06-22T11:34:28;11.98;;;10.02;;
51987;SDS011;38003;52.012;4.346;2023-06-22T11:36:57;11.88;;;10.20;;
51987;SDS011;38003;52.012;4.346;2023-06-22T11:39:25;12.32;;;9.32;;
51987;SDS011;38003;52.012;4.346;2023-06-22T11:42:08;10.68;;;9.55;;
51987;SDS011;38003;52.012;4.346;2023-06-22T11:44:36;11.88;;;10.27;;
51987;SDS011;38003;52.012;4.346;2023-06-22T11:47:04;13.25;;;10.50;;
51987;SDS011;38003;52.012;4.346;2023-06-22T11:49:33;13.60;;;11.00;;
51987;SDS011;38003;52.012;4.346;2023-06-22T11:52:03;15.70;;;12.07;;
51987;SDS011;38003;52.012;4.346;2023-06-22T11:54:31;11.80;;;10.63;;
51987;SDS011;38003;52.012;4.346;2023-06-22T11:57:00;13.80;;;10.90;;
51987;SDS011;38003;52.012;4.346;2023-06-22T11:59:28;13.50;;;12.23;;
51987;SDS011;38003;52.012;4.346;2023-06-22T12:01:57;12.52;;;11.23;;
51987;SDS011;38003;52.012;4.346;2023-06-22T12:04:25;11.95;;;10.85;;
51987;SDS011;38003;52.012;4.346;2023-06-22T12:06:53;14.90;;;13.20;;
51987;SDS011;38003;52.012;4.346;2023-06-22T12:09:23;14.85;;;13.35;;
51987;SDS011;38003;52.012;4.346;2023-06-22T12:11:51;13.85;;;12.35;;
51987;SDS011;38003;52.012;4.346;2023-06-22T12:14:19;13.20;;;11.82;;
51987;SDS011;38003;52.012;4.346;2023-06-22T12:16:48;12.45;;;11.13;;
51987;SDS011;38003;52.012;4.346;2023-06-22T12:19:16;13.82;;;11.85;;
51987;SDS011;38003;52.012;4.346;2023-06-22T12:21:44;12.95;;;11.15;;
51987;SDS011;38003;52.012;4.346;2023-06-22T12:24:12;13.40;;;11.82;;
51987;SDS011;38003;52.012;4.346;2023-06-22T12:26:42;14.95;;;10.27;;
51987;SDS011;38003;52.012;4.346;2023-06-22T12:29:10;14.23;;;12.02;;
51987;SDS011;38003;52.012;4.346;2023-06-22T12:31:39;16.27;;;12.65;;
51987;SDS011;38003;52.012;4.346;2023-06-22T12:34:08;13.68;;;10.90;;
51987;SDS011;38003;52.012;4.346;2023-06-22T12:36:36;12.85;;;10.85;;
51987;SDS011;38003;52.012;4.346;2023-06-22T12:39:04;13.10;;;11.20;;
51987;SDS011;38003;52.012;4.346;2023-06-22T12:41:32;12.18;;;10.48;;
51987;SDS011;38003;52.012;4.346;2023-06-22T12:44:02;13.30;;;11.90;;
51987;SDS011;38003;52.012;4.346;2023-06-22T12:46:30;13.32;;;11.65;;
51987;SDS011;38003;52.012;4.346;2023-06-22T12:49:03;15.77;;;10.95;;
51987;SDS011;38003;52.012;4.346;2023-06-22T12:51:32;13.70;;;11.32;;
51987;SDS011;38003;52.012;4.346;2023-06-22T12:54:00;12.07;;;10.77;;
51987;SDS011;38003;52.012;4.346;2023-06-22T12:56:28;14.10;;;12.13;;
51987;SDS011;38003;52.012;4.346;2023-06-22T12:58:57;13.07;;;11.77;;
51987;SDS011;38003;52.012;4.346;2023-06-22T13:01:29;14.27;;;12.25;;
51987;SDS011;38003;52.012;4.346;2023-06-22T13:03:58;12.38;;;10.93;;
51987;SDS011;38003;52.012;4.346;2023-06-22T13:06:26;14.32;;;12.10;;
51987;SDS011;38003;52.012;4.346;2023-06-22T13:08:55;13.93;;;11.20;;
51987;SDS011;38003;52.012;4.346;2023-06-22T13:11:43;12.60;;;11.25;;
51987;SDS011;38003;52.012;4.346;2023-06-22T13:14:11;12.10;;;9.75;;
51987;SDS011;38003;52.012;4.346;2023-06-22T13:16:41;11.50;;;10.05;;
51987;SDS011;38003;52.012;4.346;2023-06-22T13:19:09;14.00;;;10.63;;
51987;SDS011;38003;52.012;4.346;2023-06-22T13:21:37;12.57;;;11.27;;
51987;SDS011;38003;52.012;4.346;2023-06-22T13:24:06;12.82;;;11.13;;
51987;SDS011;38003;52.012;4.346;2023-06-22T13:26:34;11.27;;;10.13;;
51987;SDS011;38003;52.012;4.346;2023-06-22T13:29:02;14.57;;;12.45;;
51987;SDS011;38003;52.012;4.346;2023-06-22T13:31:30;13.05;;;11.52;;
51987;SDS011;38003;52.012;4.346;2023-06-22T13:34:00;15.00;;;13.10;;
51987;SDS011;38003;52.012;4.346;2023-06-22T13:36:28;14.98;;;13.43;;
51987;SDS011;38003;52.012;4.346;2023-06-22T13:38:57;13.77;;;12.48;;
51987;SDS011;38003;52.012;4.346;2023-06-22T13:41:25;13.27;;;11.93;;
51987;SDS011;38003;52.012;4.346;2023-06-22T13:43:53;13.85;;;12.25;;
51987;SDS011;38003;52.012;4.346;2023-06-22T13:46:22;14.77;;;13.27;;
51987;SDS011;38003;52.012;4.346;2023-06-22T13:48:50;15.30;;;13.75;;
51987;SDS011;38003;52.012;4.346;2023-06-22T13:51:23;16.77;;;15.15;;
51987;SDS011;38003;52.012;4.346;2023-06-22T13:53:51;15.30;;;13.77;;
51987;SDS011;38003;52.012;4.346;2023-06-22T13:56:20;16.40;;;13.85;;
51987;SDS011;38003;52.012;4.346;2023-06-22T13:58:49;15.35;;;13.88;;
51987;SDS011;38003;52.012;4.346;2023-06-22T14:01:17;16.52;;;13.98;;
51987;SDS011;38003;52.012;4.346;2023-06-22T14:03:45;16.77;;;14.23;;
51987;SDS011;38003;52.012;4.346;2023-06-22T14:06:14;14.75;;;13.25;;
51987;SDS011;38003;52.012;4.346;2023-06-22T14:08:43;15.18;;;13.73;;
51987;SDS011;38003;52.012;4.346;2023-06-22T14:11:12;15.50;;;13.90;;
51987;SDS011;38003;52.012;4.346;2023-06-22T14:13:40;13.68;;;12.23;;
51987;SDS011;38003;52.012;4.346;2023-06-22T14:16:09;14.02;;;12.63;;
51987;SDS011;38003;52.012;4.346;2023-06-22T14:18:37;15.15;;;12.95;;
51987;SDS011;38003;52.012;4.346;2023-06-22T14:21:05;14.00;;;12.60;;
51987;SDS011;38003;52.012;4.346;2023-06-22T14:23:34;14.27;;;12.82;;
51987;SDS011;38003;52.012;4.346;2023-06-22T14:26:05;15.10;;;13.68;;
51987;SDS011;38003;52.012;4.346;2023-06-22T14:28:33;14.98;;;13.40;;
51987;SDS011;38003;52.012;4.346;2023-06-22T14:31:01;16.17;;;14.63;;
51987;SDS011;38003;52.012;4.346;2023-06-22T14:33:29;16.42;;;14.73;;
51987;SDS011;38003;52.012;4.346;2023-06-22T14:35:58;16.08;;;14.40;;
51987;SDS011;38003;52.012;4.346;2023-06-22T14:38:26;15.68;;;14.25;;
51987;SDS011;38003;52.012;4.346;2023-06-22T14:40:54;16.90;;;15.20;;